Time;durP1;ratioP1;P1;durP2;ratioP2;P2;SDS_P1;SDS_P2;PMS_P1;PMS_P2;Temp;Humidity;BMP_temperature;BMP_pressure;BME280_temperature;BME280_humidity;BME280_pressure;Samples;Min_cycle;Max_cycle;Signal;HPM_P1;HPM_P2
2023/08/21 00:01:26;;;;;;;5.28;3.58;;;;;;;;;;5049515;28;20071;-70
2023/08/21 00:03:52;;;;;;;5.38;3.47;;;;;;;;;;5049865;28;20074;-70
2023/08/21 00:06:19;;;;;;;4.30;3.80;;;;;;;;;;5049398;28;20045;-70
2023/08/21 00:08:46;;;;;;;7.07;3.63;;;;;;;;;;5049733;28;20406;-70
2023/08/21 00:11:14;;;;;;;7.22;3.80;;;;;;;;;;5048481;28;20071;-70
2023/08/21 00:13:44;;;;;;;6.65;4.28;;;;;;;;;;5049743;28;20510;-70
2023/08/21 00:16:10;;;;;;;7.55;3.90;;;;;;;;;;5049507;28;20052;-70
2023/08/21 00:18:37;;;;;;;6.28;4.47;;;;;;;;;;5049665;28;20053;-70
2023/08/21 00:21:04;;;;;;;8.15;4.15;;;;;;;;;;5048896;28;20045;-70
2023/08/21 00:23:31;;;;;;;6.45;4.10;;;;;;;;;;5049736;28;20045;-70
2023/08/21 00:25:58;;;;;;;6.00;4.07;;;;;;;;;;5049114;28;20052;-70
2023/08/21 00:28:26;;;;;;;6.97;4.22;;;;;;;;;;5049289;28;20047;-70
2023/08/21 00:30:52;;;;;;;7.47;4.32;;;;;;;;;;5049362;28;20052;-70
2023/08/21 00:33:19;;;;;;;7.57;4.13;;;;;;;;;;5049342;28;20053;-70
2023/08/21 00:35:45;;;;;;;6.78;4.60;;;;;;;;;;5048582;28;20532;-70
2023/08/21 00:38:12;;;;;;;7.80;4.50;;;;;;;;;;5053369;28;20498;-70
2023/08/21 00:40:38;;;;;;;5.15;3.92;;;;;;;;;;5052979;28;20048;-70
2023/08/21 00:43:05;;;;;;;5.50;4.10;;;;;;;;;;5053689;28;20052;-70
2023/08/21 00:45:33;;;;;;;5.68;4.07;;;;;;;;;;5053825;28;20141;-70
2023/08/21 00:48:00;;;;;;;6.85;4.40;;;;;;;;;;5053142;28;20041;-70
2023/08/21 00:50:26;;;;;;;6.13;4.50;;;;;;;;;;5052448;28;20049;-70
2023/08/21 00:52:53;;;;;;;9.15;4.70;;;;;;;;;;5053350;28;20045;-70
2023/08/21 00:55:20;;;;;;;6.85;4.40;;;;;;;;;;5051296;28;20064;-70
2023/08/21 00:57:46;;;;;;;6.47;4.22;;;;;;;;;;5049416;28;20055;-70
2023/08/21 01:00:14;;;;;;;8.95;4.65;;;;;;;;;;5051763;28;20490;-70
2023/08/21 01:02:42;;;;;;;5.50;4.80;;;;;;;;;;5053503;28;20052;-70
2023/08/21 01:05:09;;;;;;;6.20;5.15;;;;;;;;;;5052314;28;20045;-70
2023/08/21 01:07:44;;;;;;;6.80;4.80;;;;;;;;;;5053067;28;20100;-70
2023/08/21 01:10:14;;;;;;;12.15;4.57;;;;;;;;;;5051623;28;20044;-70
2023/08/21 01:12:50;;;;;;;6.88;4.85;;;;;;;;;;5053258;28;20417;-70
2023/08/21 01:15:17;;;;;;;8.15;5.15;;;;;;;;;;5052599;28;20286;-69
2023/08/21 01:17:47;;;;;;;6.30;4.38;;;;;;;;;;5052259;28;20434;-70
2023/08/21 01:20:14;;;;;;;7.78;4.32;;;;;;;;;;5051888;28;20135;-70
2023/08/21 01:22:45;;;;;;;6.07;4.78;;;;;;;;;;5052298;28;20041;-70
2023/08/21 01:25:15;;;;;;;11.20;5.40;;;;;;;;;;5052587;28;20099;-70
2023/08/21 01:27:45;;;;;;;8.48;5.53;;;;;;;;;;5049205;28;20410;-70
2023/08/21 01:30:13;;;;;;;8.15;5.38;;;;;;;;;;5051751;28;20051;-70
2023/08/21 01:32:46;;;;;;;9.23;5.82;;;;;;;;;;5051616;28;20479;-70
2023/08/21 01:35:13;;;;;;;5.47;4.72;;;;;;;;;;5052933;28;20045;-70
2023/08/21 01:37:40;;;;;;;10.77;5.22;;;;;;;;;;5052220;28;20304;-70
2023/08/21 01:40:08;;;;;;;8.73;4.82;;;;;;;;;;5051787;28;20053;-70
2023/08/21 01:42:36;;;;;;;6.53;5.18;;;;;;;;;;5052192;28;20310;-70
2023/08/21 01:45:03;;;;;;;6.75;5.00;;;;;;;;;;5052337;28;20045;-70
2023/08/21 01:47:30;;;;;;;6.53;4.97;;;;;;;;;;5052847;28;20055;-70
2023/08/21 01:49:56;;;;;;;8.07;5.25;;;;;;;;;;5050747;28;20044;-70
2023/08/21 01:52:23;;;;;;;10.18;5.60;;;;;;;;;;5052600;28;20406;-70
2023/08/21 01:54:51;;;;;;;9.70;5.03;;;;;;;;;;5052364;28;20132;-70
2023/08/21 01:57:17;;;;;;;7.95;6.03;;;;;;;;;;5050651;28;20044;-70
2023/08/21 01:59:45;;;;;;;7.20;5.60;;;;;;;;;;5050394;28;20489;-70
2023/08/21 02:02:12;;;;;;;8.02;5.57;;;;;;;;;;5052454;28;20067;-70
2023/08/21 02:04:39;;;;;;;9.07;5.45;;;;;;;;;;5051668;28;20045;-70
2023/08/21 02:07:07;;;;;;;12.55;6.20;;;;;;;;;;5052290;28;20049;-70
2023/08/21 02:09:37;;;;;;;7.78;5.20;;;;;;;;;;5051685;28;20053;-70
2023/08/21 02:12:04;;;;;;;10.48;5.97;;;;;;;;;;5051742;28;20041;-69
2023/08/21 02:14:31;;;;;;;8.43;5.85;;;;;;;;;;5051956;28;20075;-70
2023/08/21 02:16:59;;;;;;;6.60;5.28;;;;;;;;;;5050459;28;20052;-70
2023/08/21 02:19:26;;;;;;;6.95;5.38;;;;;;;;;;5050732;28;20048;-69
2023/08/21 02:21:52;;;;;;;8.77;5.88;;;;;;;;;;5050667;28;20045;-70
2023/08/21 02:24:19;;;;;;;7.95;5.70;;;;;;;;;;5049333;28;20053;-70
2023/08/21 02:26:46;;;;;;;9.25;6.55;;;;;;;;;;5050677;28;20131;-70
2023/08/21 02:29:12;;;;;;;7.60;6.15;;;;;;;;;;5051512;28;20048;-70
2023/08/21 02:31:39;;;;;;;7.63;6.07;;;;;;;;;;5050667;28;20053;-70
2023/08/21 02:34:07;;;;;;;6.40;5.80;;;;;;;;;;5051725;28;20045;-70
2023/08/21 02:36:33;;;;;;;7.68;5.88;;;;;;;;;;5051419;28;20060;-70
2023/08/21 02:39:00;;;;;;;6.55;5.78;;;;;;;;;;5050663;28;20044;-70
2023/08/21 02:41:26;;;;;;;8.13;5.57;;;;;;;;;;5050270;28;20045;-70
2023/08/21 02:43:53;;;;;;;10.45;6.13;;;;;;;;;;5050934;28;20179;-70
2023/08/21 02:46:20;;;;;;;7.65;5.85;;;;;;;;;;5050816;28;20052;-70
2023/08/21 02:48:46;;;;;;;9.02;5.95;;;;;;;;;;5050820;28;20051;-70
2023/08/21 02:51:14;;;;;;;8.10;6.22;;;;;;;;;;5050574;28;20045;-70
2023/08/21 02:53:41;;;;;;;10.68;5.72;;;;;;;;;;5050578;28;20045;-70
2023/08/21 02:56:07;;;;;;;9.73;6.10;;;;;;;;;;5051090;28;20060;-70
2023/08/21 02:58:34;;;;;;;9.63;5.70;;;;;;;;;;5051202;28;20430;-70
2023/08/21 03:01:00;;;;;;;7.65;5.93;;;;;;;;;;5048951;28;20410;-69
2023/08/21 03:03:27;;;;;;;9.80;5.70;;;;;;;;;;5051197;28;20045;-70
2023/08/21 03:05:53;;;;;;;8.43;5.57;;;;;;;;;;5049954;28;20491;-70
2023/08/21 03:08:21;;;;;;;8.82;6.28;;;;;;;;;;5050623;28;20409;-70
2023/08/21 03:10:48;;;;;;;9.00;5.70;;;;;;;;;;5049452;28;20412;-70
2023/08/21 03:13:15;;;;;;;6.75;5.28;;;;;;;;;;5051206;28;20048;-70
2023/08/21 03:15:41;;;;;;;7.05;5.55;;;;;;;;;;5050108;28;20048;-70
2023/08/21 03:18:08;;;;;;;5.72;5.13;;;;;;;;;;5051231;28;20048;-70
2023/08/21 03:20:34;;;;;;;8.13;5.80;;;;;;;;;;5049844;28;20048;-70
2023/08/21 03:23:01;;;;;;;8.85;6.10;;;;;;;;;;5050223;28;20041;-70
2023/08/21 03:25:29;;;;;;;12.60;6.43;;;;;;;;;;5050750;28;20045;-70
2023/08/21 03:27:56;;;;;;;8.63;5.70;;;;;;;;;;5050450;28;20060;-70
2023/08/21 03:30:23;;;;;;;10.15;6.05;;;;;;;;;;5050499;28;20048;-70
2023/08/21 03:32:53;;;;;;;7.55;6.50;;;;;;;;;;5050980;28;20075;-71
2023/08/21 03:35:19;;;;;;;7.65;6.03;;;;;;;;;;5050710;28;20049;-70
2023/08/21 03:37:46;;;;;;;7.20;6.15;;;;;;;;;;5049527;28;20061;-70
2023/08/21 03:40:13;;;;;;;8.82;6.53;;;;;;;;;;5049709;28;20056;-70
2023/08/21 03:42:43;;;;;;;12.30;7.05;;;;;;;;;;5050978;28;20511;-70
2023/08/21 03:45:10;;;;;;;11.07;6.38;;;;;;;;;;5050743;28;20053;-70
2023/08/21 03:47:37;;;;;;;11.80;6.45;;;;;;;;;;5050812;28;20060;-70
2023/08/21 03:50:04;;;;;;;10.07;6.10;;;;;;;;;;5049001;28;20044;-70
2023/08/21 03:52:31;;;;;;;10.20;6.55;;;;;;;;;;5050878;28;20140;-70
2023/08/21 03:54:57;;;;;;;9.98;6.70;;;;;;;;;;5049917;28;20041;-70
2023/08/21 03:57:25;;;;;;;11.70;7.00;;;;;;;;;;5049930;28;20068;-70
2023/08/21 03:59:53;;;;;;;8.23;6.60;;;;;;;;;;5049369;28;20502;-70
2023/08/21 04:02:20;;;;;;;8.35;6.18;;;;;;;;;;5050888;28;20049;-70
2023/08/21 04:04:46;;;;;;;11.85;7.00;;;;;;;;;;5050164;28;20055;-70
2023/08/21 04:07:13;;;;;;;11.00;6.97;;;;;;;;;;5050486;28;20053;-70
2023/08/21 04:09:40;;;;;;;15.27;7.30;;;;;;;;;;5049776;28;20051;-70
2023/08/21 04:12:07;;;;;;;9.23;6.95;;;;;;;;;;5050026;28;20166;-70
2023/08/21 04:14:34;;;;;;;11.88;7.43;;;;;;;;;;5050669;28;20051;-70
2023/08/21 04:17:03;;;;;;;9.20;7.10;;;;;;;;;;5061569;22;20045;-68
2023/08/21 04:19:32;;;;;;;9.07;7.18;;;;;;;;;;5049321;28;20406;-68
2023/08/21 04:21:59;;;;;;;9.27;6.78;;;;;;;;;;5049538;28;20155;-68
2023/08/21 04:24:26;;;;;;;11.02;6.93;;;;;;;;;;5050007;28;20056;-68
2023/08/21 04:26:52;;;;;;;9.00;6.82;;;;;;;;;;5048697;28;20047;-69
2023/08/21 04:29:19;;;;;;;9.27;7.35;;;;;;;;;;5049647;28;20048;-69
2023/08/21 04:31:45;;;;;;;12.02;7.68;;;;;;;;;;5049877;28;20045;-69
2023/08/21 04:34:13;;;;;;;9.95;6.68;;;;;;;;;;5049365;28;20136;-69
2023/08/21 04:36:40;;;;;;;12.23;6.70;;;;;;;;;;5049475;28;20045;-68
2023/08/21 04:39:06;;;;;;;9.75;7.05;;;;;;;;;;5049175;28;20049;-68
2023/08/21 04:41:33;;;;;;;12.57;6.88;;;;;;;;;;5049415;28;20688;-69
2023/08/21 04:44:00;;;;;;;8.85;6.47;;;;;;;;;;5049320;28;20045;-68
2023/08/21 04:46:26;;;;;;;8.65;6.22;;;;;;;;;;5049499;28;20057;-69
2023/08/21 04:48:53;;;;;;;12.93;6.82;;;;;;;;;;5049196;28;20131;-68
2023/08/21 04:51:21;;;;;;;10.20;7.30;;;;;;;;;;5048837;28;20044;-68
2023/08/21 04:53:47;;;;;;;9.38;6.88;;;;;;;;;;5049137;28;20056;-69
2023/08/21 04:56:14;;;;;;;11.85;7.43;;;;;;;;;;5048016;28;20055;-68
2023/08/21 04:58:41;;;;;;;13.45;7.32;;;;;;;;;;5049808;28;20393;-69
2023/08/21 05:01:08;;;;;;;11.60;7.85;;;;;;;;;;5048511;28;20486;-68
2023/08/21 05:03:34;;;;;;;12.93;7.50;;;;;;;;;;5049734;28;20072;-68
2023/08/21 05:06:01;;;;;;;11.70;7.93;;;;;;;;;;5048960;28;20045;-68
2023/08/21 05:08:29;;;;;;;17.98;8.10;;;;;;;;;;5049652;28;20052;-68
2023/08/21 05:10:56;;;;;;;11.48;7.88;;;;;;;;;;5048566;28;20060;-69
2023/08/21 05:13:23;;;;;;;10.63;7.68;;;;;;;;;;5049384;28;20045;-69
2023/08/21 05:15:52;;;;;;;13.18;7.93;;;;;;;;;;5049182;28;20045;-68
2023/08/21 05:18:19;;;;;;;18.92;7.78;;;;;;;;;;5048807;28;20049;-68
2023/08/21 05:20:46;;;;;;;11.98;7.35;;;;;;;;;;5048547;28;20080;-68
2023/08/21 05:23:12;;;;;;;11.18;7.85;;;;;;;;;;5048772;28;20056;-68
2023/08/21 05:25:40;;;;;;;11.45;7.82;;;;;;;;;;5051748;28;20051;-69
2023/08/21 05:28:07;;;;;;;11.32;7.30;;;;;;;;;;5052066;28;20052;-68
2023/08/21 05:30:35;;;;;;;10.65;7.15;;;;;;;;;;5052303;28;20049;-68
2023/08/21 05:33:02;;;;;;;8.75;7.35;;;;;;;;;;5052417;28;20045;-69
2023/08/21 05:35:28;;;;;;;7.95;6.55;;;;;;;;;;5052734;28;20049;-68
2023/08/21 05:37:55;;;;;;;11.57;6.50;;;;;;;;;;5052811;28;20075;-68
2023/08/21 05:40:21;;;;;;;10.45;7.07;;;;;;;;;;5051639;28;20132;-69
2023/08/21 05:42:49;;;;;;;12.18;6.95;;;;;;;;;;5052533;28;20458;-68
2023/08/21 05:45:16;;;;;;;9.52;6.68;;;;;;;;;;5051897;28;20049;-69
2023/08/21 05:47:42;;;;;;;10.80;6.80;;;;;;;;;;5052815;28;20132;-69
2023/08/21 05:50:10;;;;;;;8.50;6.55;;;;;;;;;;5051259;28;20052;-69
2023/08/21 05:52:37;;;;;;;8.70;6.63;;;;;;;;;;5052464;28;20491;-69
2023/08/21 05:55:03;;;;;;;8.90;6.70;;;;;;;;;;5051376;28;20052;-69
2023/08/21 05:57:30;;;;;;;12.00;6.57;;;;;;;;;;5051320;28;20059;-69
2023/08/21 05:59:58;;;;;;;12.48;6.63;;;;;;;;;;5051138;28;20048;-69
2023/08/21 06:02:25;;;;;;;6.32;5.72;;;;;;;;;;5052170;28;20045;-69
2023/08/21 06:04:51;;;;;;;7.95;6.53;;;;;;;;;;5052118;28;20055;-69
2023/08/21 06:07:18;;;;;;;8.98;6.40;;;;;;;;;;5051516;28;20049;-69
2023/08/21 06:09:44;;;;;;;9.57;6.50;;;;;;;;;;5051479;28;20049;-69
2023/08/21 06:12:11;;;;;;;8.45;6.72;;;;;;;;;;5051733;28;20403;-69
2023/08/21 06:14:37;;;;;;;7.20;6.25;;;;;;;;;;5052148;28;20052;-69
2023/08/21 06:17:06;;;;;;;8.68;6.15;;;;;;;;;;5051473;28;20055;-69
2023/08/21 06:19:32;;;;;;;8.30;6.00;;;;;;;;;;5050963;28;20072;-69
2023/08/21 06:21:59;;;;;;;9.07;6.07;;;;;;;;;;5052003;28;20049;-69
2023/08/21 06:24:26;;;;;;;9.75;6.53;;;;;;;;;;5048310;28;20047;-69
2023/08/21 06:26:53;;;;;;;9.55;6.07;;;;;;;;;;5047517;28;20566;-69
2023/08/21 06:29:20;;;;;;;8.88;5.78;;;;;;;;;;5038092;28;20049;-69
2023/08/21 06:31:47;;;;;;;9.85;6.40;;;;;;;;;;5048218;28;20411;-69
2023/08/21 06:34:15;;;;;;;9.27;6.30;;;;;;;;;;5049084;28;20417;-69
2023/08/21 06:36:41;;;;;;;10.98;7.00;;;;;;;;;;5045983;28;20055;-69
2023/08/21 06:39:08;;;;;;;7.07;5.90;;;;;;;;;;5049683;28;20041;-69
2023/08/21 06:41:34;;;;;;;7.95;6.93;;;;;;;;;;5042614;28;20053;-69
2023/08/21 06:44:01;;;;;;;9.88;7.50;;;;;;;;;;5049998;28;20131;-69
2023/08/21 06:46:27;;;;;;;8.40;6.57;;;;;;;;;;5049255;28;20049;-69
2023/08/21 06:48:54;;;;;;;12.05;7.35;;;;;;;;;;5049893;28;20415;-69
2023/08/21 06:51:22;;;;;;;10.02;6.97;;;;;;;;;;5047738;28;20045;-68
2023/08/21 06:53:48;;;;;;;10.23;7.20;;;;;;;;;;5049081;28;20525;-69
2023/08/21 06:56:16;;;;;;;10.55;7.22;;;;;;;;;;5043026;28;20044;-69
2023/08/21 06:58:42;;;;;;;9.27;6.68;;;;;;;;;;5043478;28;20037;-69
2023/08/21 07:01:09;;;;;;;9.82;7.65;;;;;;;;;;5041999;28;20232;-69
2023/08/21 07:03:36;;;;;;;9.55;6.88;;;;;;;;;;5049164;28;20080;-69
2023/08/21 07:06:02;;;;;;;10.82;7.07;;;;;;;;;;5049478;28;20055;-69
2023/08/21 07:08:30;;;;;;;10.05;7.28;;;;;;;;;;5049457;28;20049;-69
2023/08/21 07:10:57;;;;;;;10.70;7.43;;;;;;;;;;5047863;28;20051;-69
2023/08/21 07:13:23;;;;;;;9.73;7.43;;;;;;;;;;5045917;28;20530;-69
2023/08/21 07:15:54;;;;;;;8.98;7.03;;;;;;;;;;5048750;28;20048;-70
2023/08/21 07:18:21;;;;;;;10.27;7.65;;;;;;;;;;5046699;28;20139;-69
2023/08/21 07:20:47;;;;;;;8.88;7.80;;;;;;;;;;5045021;28;20137;-69
2023/08/21 07:23:14;;;;;;;10.60;8.52;;;;;;;;;;5033357;28;20041;-69
2023/08/21 07:25:42;;;;;;;8.63;7.72;;;;;;;;;;5046522;28;20049;-70
2023/08/21 07:28:10;;;;;;;10.75;8.30;;;;;;;;;;5048735;28;20045;-69
2023/08/21 07:30:38;;;;;;;10.82;8.57;;;;;;;;;;5047942;28;20048;-69
2023/08/21 07:33:05;;;;;;;11.10;8.55;;;;;;;;;;5047584;28;20488;-70
2023/08/21 07:35:31;;;;;;;10.43;8.10;;;;;;;;;;5047445;28;20044;-69
2023/08/21 07:37:58;;;;;;;9.25;7.70;;;;;;;;;;5049012;28;20059;-69
2023/08/21 07:40:25;;;;;;;10.05;7.25;;;;;;;;;;5048298;28;20041;-69
2023/08/21 07:42:53;;;;;;;9.27;8.02;;;;;;;;;;5049189;28;20276;-69
2023/08/21 07:45:19;;;;;;;10.13;7.80;;;;;;;;;;5048685;28;20045;-69
2023/08/21 07:47:46;;;;;;;10.55;8.13;;;;;;;;;;5046217;28;20099;-69
2023/08/21 07:50:14;;;;;;;8.77;7.68;;;;;;;;;;5035660;28;20213;-69
2023/08/21 07:52:41;;;;;;;8.57;7.18;;;;;;;;;;5042633;28;20068;-69
2023/08/21 07:55:08;;;;;;;11.70;7.53;;;;;;;;;;5044294;28;20045;-69
2023/08/21 07:57:35;;;;;;;9.30;7.85;;;;;;;;;;5040714;28;20537;-69
2023/08/21 08:00:04;;;;;;;7.80;7.00;;;;;;;;;;5036641;28;20151;-70
2023/08/21 08:02:30;;;;;;;9.85;7.50;;;;;;;;;;5042509;28;20045;-68
2023/08/21 08:04:57;;;;;;;9.38;7.93;;;;;;;;;;5036658;28;20045;-68
2023/08/21 08:07:24;;;;;;;12.60;8.02;;;;;;;;;;5048478;28;20044;-68
2023/08/21 08:09:51;;;;;;;9.77;7.30;;;;;;;;;;5048005;28;20054;-68
2023/08/21 08:12:17;;;;;;;13.23;7.28;;;;;;;;;;5045151;28;20118;-68
2023/08/21 08:14:44;;;;;;;8.30;7.18;;;;;;;;;;5048720;28;20049;-68
2023/08/21 08:17:12;;;;;;;7.18;6.45;;;;;;;;;;5047579;28;20055;-68
2023/08/21 08:19:38;;;;;;;8.05;6.60;;;;;;;;;;5048415;28;20052;-68
2023/08/21 08:22:05;;;;;;;7.20;6.50;;;;;;;;;;5048301;28;20059;-68
2023/08/21 08:24:31;;;;;;;7.32;5.50;;;;;;;;;;5049239;28;20359;-68
2023/08/21 08:26:58;;;;;;;10.65;5.72;;;;;;;;;;5047491;28;20471;-68
2023/08/21 08:29:25;;;;;;;10.45;6.55;;;;;;;;;;5047366;28;20056;-68
2023/08/21 08:31:51;;;;;;;6.50;5.38;;;;;;;;;;5048679;28;20049;-68
2023/08/21 08:34:20;;;;;;;9.15;5.78;;;;;;;;;;5037014;28;20037;-68
2023/08/21 08:36:46;;;;;;;6.18;5.57;;;;;;;;;;5041968;28;20470;-68
2023/08/21 08:39:13;;;;;;;9.60;6.78;;;;;;;;;;5044104;28;20052;-68
2023/08/21 08:41:57;;;;;;;5.30;4.80;;;;;;;;;;5047758;28;20053;-68
2023/08/21 08:44:25;;;;;;;8.68;6.15;;;;;;;;;;5030712;28;20052;-68
2023/08/21 08:46:53;;;;;;;7.22;4.90;;;;;;;;;;5047060;28;20063;-68
2023/08/21 08:49:21;;;;;;;8.05;4.40;;;;;;;;;;5048500;28;20055;-67
2023/08/21 08:51:50;;;;;;;5.50;4.20;;;;;;;;;;5047762;28;20490;-68
2023/08/21 08:54:17;;;;;;;4.65;3.97;;;;;;;;;;5047501;28;20051;-68
2023/08/21 08:56:44;;;;;;;6.38;3.95;;;;;;;;;;5045171;28;20053;-68
2023/08/21 08:59:11;;;;;;;5.03;4.53;;;;;;;;;;5049345;28;20037;-68
2023/08/21 09:01:37;;;;;;;10.38;4.90;;;;;;;;;;5051082;28;20059;-68
2023/08/21 09:04:04;;;;;;;5.32;4.78;;;;;;;;;;5051932;28;20068;-68
2023/08/21 09:06:33;;;;;;;6.10;4.10;;;;;;;;;;5051075;28;20049;-68
2023/08/21 09:09:00;;;;;;;5.63;4.72;;;;;;;;;;5049818;28;20045;-68
2023/08/21 09:11:27;;;;;;;6.60;4.47;;;;;;;;;;5049426;28;20041;-69
2023/08/21 09:13:56;;;;;;;8.02;4.97;;;;;;;;;;5050796;28;20037;-68
2023/08/21 09:16:25;;;;;;;3.92;3.63;;;;;;;;;;5050773;28;20087;-69
2023/08/21 09:18:53;;;;;;;5.47;4.72;;;;;;;;;;5050722;28;20052;-68
2023/08/21 09:21:21;;;;;;;4.70;3.88;;;;;;;;;;5051731;28;20059;-68
2023/08/21 09:23:51;;;;;;;4.95;4.45;;;;;;;;;;5050858;28;20605;-68
2023/08/21 09:26:21;;;;;;;6.78;4.55;;;;;;;;;;5045495;28;20639;-69
2023/08/21 09:28:49;;;;;;;5.85;4.10;;;;;;;;;;5051676;28;20426;-68
2023/08/21 09:31:16;;;;;;;5.55;4.40;;;;;;;;;;5049717;28;20045;-68
2023/08/21 09:33:43;;;;;;;5.60;5.10;;;;;;;;;;5051185;28;20483;-69
2023/08/21 09:36:11;;;;;;;4.97;4.30;;;;;;;;;;5039184;28;20049;-68
2023/08/21 09:38:40;;;;;;;4.90;4.40;;;;;;;;;;5051252;28;20056;-68
2023/08/21 09:41:08;;;;;;;5.93;4.30;;;;;;;;;;5050198;28;20045;-68
2023/08/21 09:43:42;;;;;;;5.53;4.60;;;;;;;;;;5050147;28;20049;-68
2023/08/21 09:46:09;;;;;;;7.78;4.90;;;;;;;;;;5051186;28;20048;-69
2023/08/21 09:48:36;;;;;;;4.95;4.45;;;;;;;;;;5051089;28;20359;-68
2023/08/21 09:51:04;;;;;;;6.78;4.47;;;;;;;;;;5050100;28;20056;-69
2023/08/21 09:53:31;;;;;;;5.38;4.68;;;;;;;;;;5049318;28;20073;-69
2023/08/21 09:56:03;;;;;;;6.93;4.72;;;;;;;;;;5049055;28;20060;-69
2023/08/21 09:58:30;;;;;;;4.63;4.22;;;;;;;;;;5051612;28;20045;-68
2023/08/21 10:00:58;;;;;;;4.30;3.90;;;;;;;;;;5051277;28;20510;-68
2023/08/21 10:03:25;;;;;;;6.55;3.88;;;;;;;;;;5050943;28;20447;-68
2023/08/21 10:05:56;;;;;;;4.85;4.35;;;;;;;;;;5051273;28;20045;-68
2023/08/21 10:08:26;;;;;;;4.95;4.47;;;;;;;;;;5050017;28;20620;-68
2023/08/21 10:10:53;;;;;;;8.80;4.80;;;;;;;;;;5049336;28;20044;-69
2023/08/21 10:13:19;;;;;;;4.18;3.78;;;;;;;;;;5050968;28;20072;-69
2023/08/21 10:15:48;;;;;;;6.10;3.92;;;;;;;;;;5072375;22;20107;-80
2023/08/21 10:18:23;;;;;;;4.70;4.20;;;;;;;;;;5051557;28;20053;-81
2023/08/21 10:20:49;;;;;;;4.20;3.80;;;;;;;;;;5046907;28;20049;-79
2023/08/21 10:23:27;;;;;;;6.28;3.90;;;;;;;;;;5054544;28;20065;-80
2023/08/21 10:25:58;;;;;;;4.60;3.83;;;;;;;;;;5054612;28;20048;-80
2023/08/21 10:28:24;;;;;;;5.43;3.58;;;;;;;;;;5055291;28;20041;-80
2023/08/21 10:30:52;;;;;;;5.25;3.90;;;;;;;;;;5050189;28;20041;-80
2023/08/21 10:33:48;;;;;;;6.93;3.75;;;;;;;;;;5045659;28;20041;-81
2023/08/21 10:36:14;;;;;;;6.75;3.90;;;;;;;;;;5053826;28;20059;-80
2023/08/21 10:39:04;;;;;;;5.57;3.97;;;;;;;;;;5042796;28;20392;-80
2023/08/21 10:41:31;;;;;;;6.75;4.13;;;;;;;;;;5042463;28;20067;-80
2023/08/21 10:43:57;;;;;;;5.13;3.47;;;;;;;;;;5050567;28;20052;-80
2023/08/21 10:46:25;;;;;;;5.20;3.40;;;;;;;;;;5032500;28;20045;-81
2023/08/21 10:48:52;;;;;;;7.75;3.25;;;;;;;;;;5045562;28;20041;-80
2023/08/21 10:51:19;;;;;;;5.07;3.35;;;;;;;;;;5052400;28;20052;-79
2023/08/21 10:53:46;;;;;;;4.35;3.17;;;;;;;;;;5056133;28;20048;-81
2023/08/21 10:56:12;;;;;;;3.63;3.00;;;;;;;;;;5060861;28;20049;-79
2023/08/21 10:58:42;;;;;;;5.53;3.38;;;;;;;;;;5059351;28;20123;-80
2023/08/21 11:01:08;;;;;;;4.45;3.13;;;;;;;;;;5051649;28;20226;-81
2023/08/21 11:03:39;;;;;;;4.05;2.97;;;;;;;;;;5050680;28;20048;-81
2023/08/21 11:06:06;;;;;;;7.15;3.17;;;;;;;;;;5040288;28;20419;-82
2023/08/21 11:08:34;;;;;;;3.72;2.90;;;;;;;;;;5036317;28;20053;-80
2023/08/21 11:11:01;;;;;;;6.43;3.10;;;;;;;;;;5034579;28;20046;-81
2023/08/21 11:13:28;;;;;;;4.38;2.80;;;;;;;;;;5043590;28;20072;-80
2023/08/21 11:16:01;;;;;;;4.65;2.67;;;;;;;;;;5048158;28;20050;-82
2023/08/21 11:18:32;;;;;;;3.85;2.53;;;;;;;;;;5044359;28;20389;-83
2023/08/21 11:21:09;;;;;;;2.77;2.37;;;;;;;;;;5033478;28;20532;-80
2023/08/21 11:23:36;;;;;;;4.75;2.30;;;;;;;;;;5034768;28;20124;-82
2023/08/21 11:26:03;;;;;;;3.60;1.83;;;;;;;;;;5035654;28;20045;-81
2023/08/21 11:28:31;;;;;;;3.17;1.80;;;;;;;;;;5034568;28;20084;-81
2023/08/21 11:30:59;;;;;;;2.17;1.98;;;;;;;;;;5044981;28;20043;-80
2023/08/21 11:33:27;;;;;;;2.05;1.80;;;;;;;;;;5045217;28;20071;-82
2023/08/21 11:35:54;;;;;;;2.13;1.77;;;;;;;;;;5041973;28;20431;-82
2023/08/21 11:38:23;;;;;;;2.17;1.55;;;;;;;;;;5038392;28;20080;-82
2023/08/21 11:40:57;;;;;;;2.05;1.70;;;;;;;;;;5036645;28;20052;-81
2023/08/21 11:43:35;;;;;;;4.50;2.08;;;;;;;;;;5044478;28;20056;-81
2023/08/21 11:46:02;;;;;;;3.22;1.98;;;;;;;;;;5051155;28;20041;-81
2023/08/21 11:48:29;;;;;;;2.00;1.80;;;;;;;;;;5049125;28;20046;-81
2023/08/21 11:50:56;;;;;;;4.53;1.88;;;;;;;;;;5047698;28;20053;-81
2023/08/21 11:53:36;;;;;;;4.00;2.10;;;;;;;;;;5037462;28;20048;-81
2023/08/21 11:56:04;;;;;;;3.05;1.90;;;;;;;;;;5051993;28;20048;-81
2023/08/21 11:58:30;;;;;;;2.47;2.10;;;;;;;;;;5062722;28;20048;-80
2023/08/21 12:01:04;;;;;;;3.53;2.20;;;;;;;;;;5051618;28;20110;-80
2023/08/21 12:03:31;;;;;;;2.83;2.10;;;;;;;;;;5069857;28;20063;-78
2023/08/21 12:05:58;;;;;;;5.07;2.28;;;;;;;;;;5032191;28;20150;-80
2023/08/21 12:08:24;;;;;;;3.35;2.30;;;;;;;;;;5031974;28;20038;-78
2023/08/21 12:10:53;;;;;;;3.33;2.28;;;;;;;;;;5047273;28;20108;-78
2023/08/21 12:13:19;;;;;;;3.45;2.30;;;;;;;;;;5058260;28;20037;-78
2023/08/21 12:15:46;;;;;;;3.28;2.20;;;;;;;;;;5070844;28;20129;-78
2023/08/21 12:18:15;;;;;;;3.67;2.10;;;;;;;;;;5063316;28;20056;-83
2023/08/21 12:20:41;;;;;;;5.13;2.58;;;;;;;;;;5042806;28;20320;-83
2023/08/21 12:23:08;;;;;;;4.07;2.47;;;;;;;;;;5049232;28;20116;-83
2023/08/21 12:25:35;;;;;;;3.28;2.38;;;;;;;;;;5047406;28;20124;-84
2023/08/21 12:28:03;;;;;;;2.88;2.10;;;;;;;;;;5055949;28;20049;-83
2023/08/21 12:30:29;;;;;;;3.45;2.40;;;;;;;;;;5052792;28;20053;-83
2023/08/21 12:32:56;;;;;;;2.83;2.13;;;;;;;;;;5046130;28;20050;-84
2023/08/21 12:35:22;;;;;;;3.33;2.28;;;;;;;;;;5047584;28;20053;-83
2023/08/21 12:37:49;;;;;;;3.10;2.20;;;;;;;;;;5048617;28;20037;-84
2023/08/21 12:40:16;;;;;;;3.63;2.17;;;;;;;;;;5047487;28;20038;-84
2023/08/21 12:42:42;;;;;;;2.45;2.10;;;;;;;;;;5046926;28;20049;-82
2023/08/21 12:45:11;;;;;;;4.85;2.45;;;;;;;;;;5039796;28;20489;-84
2023/08/21 12:47:38;;;;;;;4.40;2.38;;;;;;;;;;5047416;28;20049;-83
2023/08/21 12:50:08;;;;;;;3.53;2.40;;;;;;;;;;5038706;28;20120;-84
2023/08/21 12:52:34;;;;;;;2.65;2.08;;;;;;;;;;5048977;28;20512;-84
2023/08/21 12:55:03;;;;;;;2.83;2.00;;;;;;;;;;5046540;28;20037;-84
2023/08/21 12:57:30;;;;;;;3.10;2.00;;;;;;;;;;5048255;28;20051;-84
2023/08/21 12:59:56;;;;;;;2.20;1.90;;;;;;;;;;5051317;28;20041;-84
2023/08/21 13:02:27;;;;;;;2.30;2.10;;;;;;;;;;5059397;28;20059;-84
2023/08/21 13:04:53;;;;;;;3.20;1.90;;;;;;;;;;5046265;28;20057;-84
2023/08/21 13:07:20;;;;;;;2.55;1.98;;;;;;;;;;5036264;28;20053;-80
2023/08/21 13:09:46;;;;;;;2.10;1.90;;;;;;;;;;5042899;28;20042;-80
2023/08/21 13:12:13;;;;;;;2.80;2.05;;;;;;;;;;5038102;28;20041;-80
2023/08/21 13:14:41;;;;;;;3.20;1.80;;;;;;;;;;5036623;28;20130;-80
2023/08/21 13:17:07;;;;;;;1.73;1.58;;;;;;;;;;5044282;28;20064;-80
2023/08/21 13:19:35;;;;;;;3.83;1.80;;;;;;;;;;5042669;28;20045;-80
2023/08/21 13:22:02;;;;;;;2.88;1.85;;;;;;;;;;5049869;28;20056;-80
2023/08/21 13:24:30;;;;;;;3.00;1.67;;;;;;;;;;5056409;28;20129;-80
2023/08/21 13:26:56;;;;;;;2.50;1.75;;;;;;;;;;5056151;28;20084;-81
2023/08/21 13:29:23;;;;;;;2.85;1.40;;;;;;;;;;5060867;28;20048;-79
2023/08/21 13:31:50;;;;;;;2.40;1.50;;;;;;;;;;5052327;28;20051;-79
2023/08/21 13:34:16;;;;;;;3.00;1.75;;;;;;;;;;5061487;28;20056;-79
2023/08/21 13:36:44;;;;;;;2.97;1.60;;;;;;;;;;5063722;28;20049;-79
2023/08/21 13:39:12;;;;;;;2.15;1.50;;;;;;;;;;5063764;28;20049;-79
2023/08/21 13:41:39;;;;;;;2.38;1.48;;;;;;;;;;5046814;28;20041;-79
2023/08/21 13:44:05;;;;;;;1.98;1.30;;;;;;;;;;5042650;28;20055;-80
2023/08/21 13:46:33;;;;;;;3.83;1.40;;;;;;;;;;5042473;28;20042;-80
2023/08/21 13:49:00;;;;;;;4.00;1.50;;;;;;;;;;5039193;28;20045;-78
2023/08/21 13:51:27;;;;;;;2.95;1.40;;;;;;;;;;5038164;28;20068;-78
2023/08/21 13:53:55;;;;;;;1.95;1.52;;;;;;;;;;5037954;28;20527;-78
2023/08/21 13:56:21;;;;;;;1.35;1.25;;;;;;;;;;5038459;28;20049;-78
2023/08/21 13:58:48;;;;;;;2.85;1.48;;;;;;;;;;5038378;28;20233;-78
2023/08/21 14:01:14;;;;;;;2.28;1.30;;;;;;;;;;5038657;28;20057;-78
2023/08/21 14:03:42;;;;;;;2.28;1.50;;;;;;;;;;5037912;28;20059;-78
2023/08/21 14:06:11;;;;;;;1.80;1.50;;;;;;;;;;5037891;28;20049;-78
2023/08/21 14:08:37;;;;;;;3.13;1.50;;;;;;;;;;5036478;28;20095;-78
2023/08/21 14:11:05;;;;;;;1.55;1.40;;;;;;;;;;5037416;28;20048;-78
2023/08/21 14:13:32;;;;;;;2.08;1.40;;;;;;;;;;5043592;28;20049;-78
2023/08/21 14:15:58;;;;;;;1.60;1.40;;;;;;;;;;5042438;28;20060;-79
2023/08/21 14:18:25;;;;;;;2.47;1.38;;;;;;;;;;5045956;28;20113;-79
2023/08/21 14:20:51;;;;;;;4.50;1.40;;;;;;;;;;5044943;28;20045;-79
2023/08/21 14:23:18;;;;;;;5.10;1.52;;;;;;;;;;5046811;28;20056;-79
2023/08/21 14:25:44;;;;;;;3.05;1.30;;;;;;;;;;5054781;28;20049;-79
2023/08/21 14:28:12;;;;;;;3.63;1.33;;;;;;;;;;5062817;28;20049;-79
2023/08/21 14:30:39;;;;;;;1.45;1.30;;;;;;;;;;5060085;28;20049;-79
2023/08/21 14:33:05;;;;;;;2.33;1.33;;;;;;;;;;5055330;28;20060;-78
2023/08/21 14:35:32;;;;;;;1.80;1.60;;;;;;;;;;5056471;28;20099;-79
2023/08/21 14:37:59;;;;;;;2.38;1.30;;;;;;;;;;5056030;28;20415;-78
2023/08/21 14:40:25;;;;;;;2.22;1.30;;;;;;;;;;5057411;28;20375;-78
2023/08/21 14:42:52;;;;;;;2.70;1.50;;;;;;;;;;5052850;28;20041;-79